Time;durP1;ratioP1;P1;durP2;ratioP2;P2;SDS_P1;SDS_P2;PMS_P1;PMS_P2;Temp;Humidity;BMP_temperature;BMP_pressure;BME280_temperature;BME280_humidity;BME280_pressure;Samples;Min_cycle;Max_cycle;Signal;HPM_P1;HPM_P2
2023/09/27 05:28:18;;;;;;;;;;;;;;;17.54;61.27;97384.22;4216649;27;10465;-61
2023/09/27 05:30:21;;;;;;;;;;;;;;;17.81;60.88;97382.94;4213889;28;5763;-60
2023/09/27 05:32:24;;;;;;;;;;;;;;;18.00;60.42;97387.19;4214668;28;5746;-60
2023/09/27 05:34:29;;;;;;;;;;;;;;;18.20;60.03;97392.28;4212906;28;6771;-59
2023/09/27 05:36:32;;;;;;;;;;;;;;;18.34;59.98;97390.22;4211737;28;5716;-61
2023/09/27 05:38:35;;;;;;;;;;;;;;;18.45;59.66;97385.97;4201085;28;5750;-60
2023/09/27 05:40:38;;;;;;;;;;;;;;;18.56;59.36;97388.66;4212850;28;5862;-60
2023/09/27 05:42:43;;;;;;;;;;;;;;;18.63;59.19;97384.03;4209431;28;5759;-61
2023/09/27 05:44:47;;;;;;;;;;;;;;;18.71;58.98;97376.75;4214839;28;5741;-60
2023/09/27 05:46:50;;;;;;;;;;;;;;;18.77;58.79;97375.81;4214734;28;5739;-59
2023/09/27 05:48:53;;;;;;;;;;;;;;;18.82;58.67;97378.63;4211684;28;5746;-59
2023/09/27 05:50:55;;;;;;;;;;;;;;;18.84;58.40;97382.72;4216489;28;5837;-60
2023/09/27 05:52:59;;;;;;;;;;;;;;;18.86;58.32;97390.50;4212815;28;5866;-60
2023/09/27 05:55:05;;;;;;;;;;;;;;;18.88;58.11;97389.22;4214234;28;5811;-60
2023/09/27 05:57:08;;;;;;;;;;;;;;;18.92;58.01;97394.97;4214377;28;5100;-59
2023/09/27 05:59:12;;;;;;;;;;;;;;;18.94;57.70;97384.81;4214041;28;5750;-60
2023/09/27 06:01:19;;;;;;;;;;;;;;;18.98;57.61;97387.84;4214418;28;5762;-59
2023/09/27 06:03:22;;;;;;;;;;;;;;;18.99;57.67;97386.78;4213839;28;5803;-59
2023/09/27 06:05:25;;;;;;;;;;;;;;;19.00;57.51;97391.91;4214213;28;5738;-60
2023/09/27 06:07:29;;;;;;;;;;;;;;;19.01;57.46;97382.81;4214026;28;5701;-60
2023/09/27 06:09:32;;;;;;;;;;;;;;;19.03;57.21;97382.63;4213273;28;5888;-60
2023/09/27 06:11:35;;;;;;;;;;;;;;;19.05;57.06;97384.00;4214016;28;5738;-60
2023/09/27 06:13:38;;;;;;;;;;;;;;;19.06;56.90;97379.47;4213803;28;5737;-61
2023/09/27 06:15:41;;;;;;;;;;;;;;;19.07;56.79;97379.22;4213591;28;5813;-61
2023/09/27 06:17:44;;;;;;;;;;;;;;;19.08;56.87;97380.88;4213283;28;5805;-61
2023/09/27 06:19:48;;;;;;;;;;;;;;;19.10;56.67;97381.44;4213702;28;5757;-61
2023/09/27 06:21:51;;;;;;;;;;;;;;;19.11;56.67;97377.72;4213701;28;5751;-60
2023/09/27 06:23:54;;;;;;;;;;;;;;;19.12;56.70;97381.19;4213583;28;5729;-60
2023/09/27 06:25:57;;;;;;;;;;;;;;;19.14;56.64;97387.97;4213116;28;6025;-60
2023/09/27 06:28:00;;;;;;;;;;;;;;;19.14;56.53;97390.66;4208858;28;5727;-60
2023/09/27 06:30:04;;;;;;;;;;;;;;;19.16;56.23;97385.88;4202239;28;5905;-61
2023/09/27 06:32:07;;;;;;;;;;;;;;;19.17;56.32;97387.50;4202234;28;5781;-60
2023/09/27 06:34:14;;;;;;;;;;;;;;;19.18;56.23;97389.13;4202161;28;5890;-59
2023/09/27 06:36:17;;;;;;;;;;;;;;;19.20;55.94;97391.59;4186450;28;5828;-59
2023/09/27 06:38:21;;;;;;;;;;;;;;;19.22;55.90;97388.66;4203047;28;5847;-60
2023/09/27 06:40:25;;;;;;;;;;;;;;;19.23;55.98;97387.59;4202677;28;5825;-59
2023/09/27 06:42:28;;;;;;;;;;;;;;;19.24;55.84;97389.25;4202349;28;5726;-59
2023/09/27 06:44:33;;;;;;;;;;;;;;;19.24;55.67;97386.56;4202350;28;6183;-60
2023/09/27 06:46:36;;;;;;;;;;;;;;;19.26;55.75;97385.31;4202294;28;5913;-60
2023/09/27 06:48:50;;;;;;;;;;;;;;;19.29;55.69;97386.69;4200928;28;5765;-60
2023/09/27 06:50:55;;;;;;;;;;;;;;;19.31;55.60;97384.59;4196790;28;5779;-60
2023/09/27 06:52:58;;;;;;;;;;;;;;;19.31;55.76;97382.72;4185828;28;5798;-60
2023/09/27 06:55:22;;;;;;;;;;;;;;;19.32;55.54;97378.16;4195164;28;5763;-60
2023/09/27 06:57:25;;;;;;;;;;;;;;;19.35;55.74;97378.50;4202264;28;5822;-60
2023/09/27 06:59:28;;;;;;;;;;;;;;;19.36;55.50;97369.41;4202340;28;5824;-60
2023/09/27 07:01:31;;;;;;;;;;;;;;;19.38;55.69;97367.34;4202546;28;5865;-60
2023/09/27 07:03:36;;;;;;;;;;;;;;;19.37;55.36;97371.06;4202062;28;5735;-60
2023/09/27 07:05:39;;;;;;;;;;;;;;;19.40;55.58;97380.50;4196637;28;5110;-60
2023/09/27 07:07:46;;;;;;;;;;;;;;;19.42;55.57;97378.41;4196074;28;5739;-61
2023/09/27 07:09:49;;;;;;;;;;;;;;;19.44;55.52;97376.28;4199010;28;5730;-60
2023/09/27 07:11:52;;;;;;;;;;;;;;;19.45;55.33;97369.88;4202209;28;5741;-60
2023/09/27 07:13:55;;;;;;;;;;;;;;;19.46;55.32;97380.38;4202281;28;7120;-60
2023/09/27 07:15:59;;;;;;;;;;;;;;;19.49;55.77;97381.78;4202021;28;5954;-60
2023/09/27 07:18:03;;;;;;;;;;;;;;;19.51;55.73;97376.19;4201330;28;5868;-60
2023/09/27 07:20:20;;;;;;;;;;;;;;;19.51;55.49;97374.31;4207476;28;5848;-60
2023/09/27 07:22:23;;;;;;;;;;;;;;;19.53;55.43;97374.06;4200997;28;5816;-61
2023/09/27 07:24:30;;;;;;;;;;;;;;;19.53;55.65;97374.88;4201729;28;5776;-60
2023/09/27 07:26:33;;;;;;;;;;;;;;;19.54;55.72;97373.03;4200585;28;5723;-59
2023/09/27 07:28:36;;;;;;;;;;;;;;;19.55;55.28;97380.84;4197702;28;5754;-60
2023/09/27 07:30:41;;;;;;;;;;;;;;;19.57;55.64;97377.94;4201556;28;5722;-60
2023/09/27 07:32:44;;;;;;;;;;;;;;;19.57;55.58;97373.38;4201335;28;6720;-59
2023/09/27 07:34:48;;;;;;;;;;;;;;;19.57;55.48;97368.03;4201916;28;5734;-60
2023/09/27 07:36:52;;;;;;;;;;;;;;;19.58;55.34;97366.16;4202003;28;5733;-60
2023/09/27 07:38:57;;;;;;;;;;;;;;;19.60;55.36;97367.56;4201519;28;5730;-60
2023/09/27 07:41:02;;;;;;;;;;;;;;;19.62;55.37;97362.78;4200696;28;5738;-60
2023/09/27 07:43:05;;;;;;;;;;;;;;;19.64;55.46;97360.66;4201395;28;5734;-60
2023/09/27 07:45:15;;;;;;;;;;;;;;;19.63;55.29;97359.03;4201605;28;5288;-60
2023/09/27 07:47:19;;;;;;;;;;;;;;;19.64;55.38;97363.34;4201427;28;5192;-60
2023/09/27 07:49:23;;;;;;;;;;;;;;;19.67;55.35;97356.69;4201222;28;5730;-60
2023/09/27 07:51:25;;;;;;;;;;;;;;;19.68;55.48;97356.44;4201428;28;6968;-60
2023/09/27 07:53:28;;;;;;;;;;;;;;;19.68;55.40;97356.44;4201367;28;5733;-60
2023/09/27 07:55:32;;;;;;;;;;;;;;;19.71;55.10;97360.56;4201408;28;5836;-60
2023/09/27 07:57:36;;;;;;;;;;;;;;;19.72;55.40;97360.31;4201294;28;5750;-60
2023/09/27 07:59:39;;;;;;;;;;;;;;;19.74;55.03;97355.53;4200905;28;5750;-60
2023/09/27 08:01:42;;;;;;;;;;;;;;;19.76;55.02;97364.13;4201101;28;5817;-60
2023/09/27 08:03:45;;;;;;;;;;;;;;;19.77;55.13;97354.22;4200670;28;5737;-60
2023/09/27 08:05:49;;;;;;;;;;;;;;;19.78;55.02;97362.03;4201248;28;5741;-60
2023/09/27 08:07:52;;;;;;;;;;;;;;;19.80;55.34;97352.91;4201092;28;5793;-60
2023/09/27 08:09:54;;;;;;;;;;;;;;;19.81;55.11;97352.69;4201194;28;5840;-60
2023/09/27 08:12:19;;;;;;;;;;;;;;;19.83;54.63;97352.47;4201243;28;5918;-60
2023/09/27 08:14:26;;;;;;;;;;;;;;;19.83;54.72;97347.09;4201288;28;7706;-60
2023/09/27 08:16:29;;;;;;;;;;;;;;;19.84;54.44;97346.03;4201329;28;5816;-60
2023/09/27 08:18:33;;;;;;;;;;;;;;;19.84;54.41;97348.72;4200602;28;5940;-60
2023/09/27 08:20:36;;;;;;;;;;;;;;;19.86;54.36;97342.06;4201185;28;5754;-60
2023/09/27 08:22:39;;;;;;;;;;;;;;;19.88;54.21;97339.13;4201231;28;5841;-60
2023/09/27 08:24:43;;;;;;;;;;;;;;;19.90;54.07;97339.72;4200830;28;5836;-60
2023/09/27 08:26:46;;;;;;;;;;;;;;;19.90;54.26;97337.03;4200597;28;5730;-60
2023/09/27 08:28:49;;;;;;;;;;;;;;;19.92;54.19;97335.72;4200747;28;5714;-60
2023/09/27 08:30:58;;;;;;;;;;;;;;;19.93;54.08;97336.53;4200820;28;5734;-60
2023/09/27 08:33:01;;;;;;;;;;;;;;;19.94;53.99;97340.88;4200555;28;5807;-60
2023/09/27 08:35:05;;;;;;;;;;;;;;;19.93;54.08;97341.91;4200667;28;5838;-60
2023/09/27 08:37:11;;;;;;;;;;;;;;;19.93;54.25;97344.59;4200562;28;5896;-60
2023/09/27 08:39:14;;;;;;;;;;;;;;;19.94;54.18;97351.63;4192547;28;5763;-60
2023/09/27 08:41:19;;;;;;;;;;;;;;;19.96;54.28;97344.13;4199632;28;5814;-60
2023/09/27 08:43:22;;;;;;;;;;;;;;;19.98;54.47;97339.34;4200516;28;5858;-60
2023/09/27 08:45:27;;;;;;;;;;;;;;;19.99;54.10;97338.28;4200712;28;5746;-60
2023/09/27 08:47:33;;;;;;;;;;;;;;;20.01;54.48;97336.16;4200469;28;5780;-60
2023/09/27 08:49:36;;;;;;;;;;;;;;;20.02;54.42;97335.91;4200474;28;5730;-60
2023/09/27 08:51:43;;;;;;;;;;;;;;;20.06;54.37;97339.78;4200601;28;5874;-60
2023/09/27 08:53:46;;;;;;;;;;;;;;;20.06;54.37;97337.09;4200610;28;8522;-60
2023/09/27 08:55:49;;;;;;;;;;;;;;;20.08;54.19;97334.16;4198466;28;5793;-60
2023/09/27 08:57:58;;;;;;;;;;;;;;;20.08;54.23;97336.84;4191621;28;5916;-66
2023/09/27 09:00:00;;;;;;;;;;;;;;;20.10;54.62;97336.59;4194774;28;5776;-67
2023/09/27 09:02:05;;;;;;;;;;;;;;;20.11;54.15;97328.31;4200199;28;5917;-66
2023/09/27 09:04:11;;;;;;;;;;;;;;;20.13;54.25;97326.19;4195067;28;5772;-67
2023/09/27 09:06:15;;;;;;;;;;;;;;;20.14;54.54;97327.00;4200301;28;5816;-67
2023/09/27 09:08:19;;;;;;;;;;;;;;;20.14;54.33;97327.81;4198902;28;5797;-68
2023/09/27 09:10:44;;;;;;;;;;;;;;;20.15;54.06;97329.44;4198278;28;5697;-68
2023/09/27 09:12:48;;;;;;;;;;;;;;;20.15;54.28;97329.44;4200029;28;5805;-68
2023/09/27 09:14:54;;;;;;;;;;;;;;;20.16;54.37;97325.72;4196479;28;5730;-65
2023/09/27 09:16:57;;;;;;;;;;;;;;;20.17;54.38;97332.72;4187140;28;5730;-68
2023/09/27 09:19:20;;;;;;;;;;;;;;;20.16;54.03;97320.38;4191215;28;5755;-65
2023/09/27 09:21:44;;;;;;;;;;;;;;;20.19;54.22;97324.44;4198511;28;5817;-65
2023/09/27 09:23:49;;;;;;;;;;;;;;;20.20;54.09;97323.38;4197698;28;5731;-65
2023/09/27 09:25:53;;;;;;;;;;;;;;;20.23;54.38;97322.88;4189877;28;5750;-66
2023/09/27 09:28:03;;;;;;;;;;;;;;;20.24;54.62;97317.25;4191993;28;5818;-65
2023/09/27 09:30:09;;;;;;;;;;;;;;;20.27;54.34;97322.16;4196764;28;5796;-65
2023/09/27 09:32:13;;;;;;;;;;;;;;;20.30;54.09;97312.81;4190147;28;5901;-65
2023/09/27 09:34:16;;;;;;;;;;;;;;;20.29;53.99;97314.69;4194328;28;5886;-60
2023/09/27 09:36:27;;;;;;;;;;;;;;;20.28;54.19;97318.44;4190358;28;5857;-61
2023/09/27 09:38:31;;;;;;;;;;;;;;;20.28;54.24;97323.78;4192922;28;5742;-61
2023/09/27 09:40:52;;;;;;;;;;;;;;;20.29;54.43;97312.00;4196016;28;5730;-60
2023/09/27 09:42:57;;;;;;;;;;;;;;;20.29;54.04;97320.06;4189730;28;6668;-61
2023/09/27 09:45:06;;;;;;;;;;;;;;;20.30;54.35;97320.88;4192829;28;5909;-61
2023/09/27 09:47:11;;;;;;;;;;;;;;;20.30;54.06;97310.94;4192237;28;5132;-60
2023/09/27 09:49:15;;;;;;;;;;;;;;;20.32;54.13;97311.50;4196227;28;6652;-61
2023/09/27 09:51:24;;;;;;;;;;;;;;;20.33;53.92;97310.44;4191866;28;5890;-61
2023/09/27 09:53:28;;;;;;;;;;;;;;;20.35;53.78;97324.44;4196845;28;5924;-61
2023/09/27 09:55:34;;;;;;;;;;;;;;;20.38;53.87;97325.00;4193318;28;5971;-60
2023/09/27 09:58:06;;;;;;;;;;;;;;;20.41;53.61;97319.16;4188067;28;5877;-59
2023/09/27 10:00:16;;;;;;;;;;;;;;;20.42;53.50;97326.16;4196419;28;5857;-60
2023/09/27 10:02:21;;;;;;;;;;;;;;;20.44;53.67;97329.44;4191351;28;5829;-61
2023/09/27 10:04:26;;;;;;;;;;;;;;;20.45;53.34;97325.72;4194168;28;6922;-62
2023/09/27 10:06:31;;;;;;;;;;;;;;;20.47;53.64;97324.41;4191495;28;5850;-62
2023/09/27 10:08:51;;;;;;;;;;;;;;;20.49;53.17;97324.97;4201149;28;5802;-62
2023/09/27 10:10:55;;;;;;;;;;;;;;;20.52;53.60;97323.69;4201333;28;6428;-62
2023/09/27 10:12:59;;;;;;;;;;;;;;;20.53;53.35;97314.56;4199664;28;5849;-62
2023/09/27 10:15:03;;;;;;;;;;;;;;;20.54;53.35;97310.81;4202720;28;5824;-62
2023/09/27 10:17:20;;;;;;;;;;;;;;;20.54;53.23;97310.81;4200908;28;5726;-62
2023/09/27 10:19:28;;;;;;;;;;;;;;;20.58;53.48;97311.94;4200289;28;5734;-62
2023/09/27 10:21:36;;;;;;;;;;;;;;;20.58;53.09;97302.03;4201399;28;5900;-62
2023/09/27 10:23:58;;;;;;;;;;;;;;;20.61;53.06;97298.03;4199992;28;5911;-63
2023/09/27 10:26:19;;;;;;;;;;;;;;;20.63;53.35;97294.06;4196523;28;5845;-63
2023/09/27 10:28:23;;;;;;;;;;;;;;;20.64;53.03;97292.19;4184314;28;5846;-62
2023/09/27 10:30:25;;;;;;;;;;;;;;;20.65;53.07;97291.13;4184217;28;5819;-63
2023/09/27 10:32:28;;;;;;;;;;;;;;;20.67;52.78;97291.69;4184258;28;5822;-63
2023/09/27 10:34:40;;;;;;;;;;;;;;;20.68;53.09;97285.25;4184437;28;5806;-63
2023/09/27 10:36:46;;;;;;;;;;;;;;;20.70;52.84;97285.00;4184284;28;5742;-63
2023/09/27 10:39:06;;;;;;;;;;;;;;;20.71;52.79;97284.75;4184209;28;5742;-62
2023/09/27 10:41:10;;;;;;;;;;;;;;;20.73;52.87;97282.66;4182456;28;5715;-63
2023/09/27 10:43:40;;;;;;;;;;;;;;;20.72;52.84;97270.25;4176053;28;5715;-63
2023/09/27 10:45:43;;;;;;;;;;;;;;;20.74;52.81;97268.16;4184421;28;5731;-62
2023/09/27 10:47:49;;;;;;;;;;;;;;;20.73;52.85;97261.16;4183975;28;5730;-63
2023/09/27 10:49:53;;;;;;;;;;;;;;;20.75;53.13;97264.41;4183639;28;5739;-63
2023/09/27 10:51:58;;;;;;;;;;;;;;;20.77;52.94;97267.66;4184458;28;5735;-62
2023/09/27 10:54:09;;;;;;;;;;;;;;;20.79;53.19;97268.22;4186108;28;6176;-62
2023/09/27 10:56:14;;;;;;;;;;;;;;;20.79;52.89;97270.91;4176607;28;5774;-62
2023/09/27 10:58:17;;;;;;;;;;;;;;;20.78;52.97;97271.97;4185280;28;5711;-62
2023/09/27 11:00:21;;;;;;;;;;;;;;;20.80;52.98;97271.72;4185499;28;5710;-62
2023/09/27 11:02:31;;;;;;;;;;;;;;;20.80;52.80;97274.41;4184951;28;5722;-62
2023/09/27 11:04:36;;;;;;;;;;;;;;;20.81;52.47;97268.78;4167456;28;5945;-62
2023/09/27 11:06:38;;;;;;;;;;;;;;;20.81;52.85;97263.41;4185088;28;5738;-62
2023/09/27 11:08:43;;;;;;;;;;;;;;;20.81;52.26;97257.22;4185183;28;5727;-62
2023/09/27 11:10:46;;;;;;;;;;;;;;;20.81;52.35;97249.97;4180036;28;5718;-62
2023/09/27 11:12:49;;;;;;;;;;;;;;;20.83;52.25;97249.72;4187790;28;6388;-61
2023/09/27 11:14:52;;;;;;;;;;;;;;;20.85;52.14;97250.31;4182481;28;5861;-62
2023/09/27 11:16:56;;;;;;;;;;;;;;;20.85;52.18;97243.06;4183137;28;5966;-64
2023/09/27 11:18:59;;;;;;;;;;;;;;;20.87;52.06;97240.13;4186171;28;5124;-64
2023/09/27 11:21:08;;;;;;;;;;;;;;;20.89;51.81;97241.50;4185123;28;5801;-64
2023/09/27 11:23:11;;;;;;;;;;;;;;;20.89;51.61;97241.50;4184683;28;5163;-64
2023/09/27 11:25:28;;;;;;;;;;;;;;;20.89;51.73;97238.81;4184808;28;5719;-64
2023/09/27 11:27:32;;;;;;;;;;;;;;;20.92;51.95;97232.94;4194676;28;5755;-64
2023/09/27 11:29:36;;;;;;;;;;;;;;;20.93;51.73;97228.38;4201346;28;5630;-64
2023/09/27 11:31:39;;;;;;;;;;;;;;;20.92;51.67;97222.19;4201369;28;5619;-64
2023/09/27 11:33:42;;;;;;;;;;;;;;;20.93;51.67;97229.19;4200958;28;5683;-64
2023/09/27 11:35:49;;;;;;;;;;;;;;;20.94;51.26;97225.44;4201203;28;5654;-63
2023/09/27 11:38:05;;;;;;;;;;;;;;;20.98;51.21;97216.91;4201298;28;5691;-63
2023/09/27 11:40:09;;;;;;;;;;;;;;;20.97;51.44;97205.34;4170372;28;5656;-70
2023/09/27 11:42:13;;;;;;;;;;;;;;;20.96;50.78;97205.59;4195430;28;5734;-69
2023/09/27 11:44:18;;;;;;;;;;;;;;;20.95;50.81;97207.44;4192619;28;6427;-67
2023/09/27 11:46:27;;;;;;;;;;;;;;;20.97;50.89;97204.53;4192736;28;5737;-67
2023/09/27 11:48:34;;;;;;;;;;;;;;;20.97;50.58;97210.72;4196123;28;5642;-73
2023/09/27 11:50:38;;;;;;;;;;;;;;;20.98;50.79;97208.84;4199182;28;5754;-67
2023/09/27 11:52:43;;;;;;;;;;;;;;;20.99;50.20;97205.09;4199335;28;5959;-65
2023/09/27 11:54:45;;;;;;;;;;;;;;;21.00;50.34;97195.94;4180327;28;5643;-65
2023/09/27 11:56:48;;;;;;;;;;;;;;;21.00;50.56;97201.31;4196324;28;5776;-66
2023/09/27 11:58:53;;;;;;;;;;;;;;;21.02;50.11;97193.81;4194092;28;5921;-66
2023/09/27 12:00:56;;;;;;;;;;;;;;;21.02;50.46;97185.75;4199694;28;5820;-66
2023/09/27 12:02:59;;;;;;;;;;;;;;;21.02;50.18;97191.13;4195085;28;6372;-66
2023/09/27 12:05:04;;;;;;;;;;;;;;;21.02;50.44;97183.88;4200770;28;5635;-66
2023/09/27 12:07:07;;;;;;;;;;;;;;;21.05;50.03;97187.94;4200735;28;5754;-66
2023/09/27 12:09:11;;;;;;;;;;;;;;;21.04;50.35;97178.25;4201262;28;5730;-65
2023/09/27 12:11:14;;;;;;;;;;;;;;;21.05;50.45;97183.38;4184932;28;5658;-65
2023/09/27 12:13:17;;;;;;;;;;;;;;;21.09;50.33;97181.84;4201109;28;5714;-65
2023/09/27 12:15:21;;;;;;;;;;;;;;;21.10;49.84;97174.56;4200957;28;6359;-66
2023/09/27 12:17:24;;;;;;;;;;;;;;;21.10;50.14;97174.56;4200975;28;5759;-65
2023/09/27 12:19:28;;;;;;;;;;;;;;;21.12;49.85;97170.56;4200860;28;5743;-66
2023/09/27 12:21:34;;;;;;;;;;;;;;;21.14;49.82;97167.63;4200876;28;5837;-65
2023/09/27 12:23:38;;;;;;;;;;;;;;;21.16;49.76;97168.19;4201130;28;5639;-65
2023/09/27 12:25:41;;;;;;;;;;;;;;;21.17;49.66;97164.44;4200684;28;5623;-65
2023/09/27 12:27:45;;;;;;;;;;;;;;;21.18;49.94;97168.78;4200637;28;5758;-65
2023/09/27 12:29:48;;;;;;;;;;;;;;;21.21;50.20;97162.88;4201056;28;5743;-66
2023/09/27 12:31:52;;;;;;;;;;;;;;;21.21;49.80;97160.19;4200875;28;5823;-66
2023/09/27 12:33:55;;;;;;;;;;;;;;;21.21;50.13;97155.63;4200361;28;6377;-66
2023/09/27 12:35:58;;;;;;;;;;;;;;;21.22;49.83;97153.75;4200831;28;5758;-65
2023/09/27 12:38:04;;;;;;;;;;;;;;;21.24;49.90;97157.00;4200707;28;5838;-66
2023/09/27 12:40:08;;;;;;;;;;;;;;;21.25;50.27;97152.44;4200897;28;5722;-65
2023/09/27 12:42:14;;;;;;;;;;;;;;;21.24;49.85;97151.63;4200732;28;5857;-66
2023/09/27 12:44:17;;;;;;;;;;;;;;;21.22;50.02;97153.75;4184381;28;5752;-66
2023/09/27 12:46:24;;;;;;;;;;;;;;;21.23;50.16;97158.06;4193834;28;5746;-65
2023/09/27 12:48:29;;;;;;;;;;;;;;;21.23;49.78;97163.44;4199969;28;5713;-67
2023/09/27 12:50:40;;;;;;;;;;;;;;;21.23;49.92;97153.50;4200092;28;5738;-67
2023/09/27 12:52:43;;;;;;;;;;;;;;;21.25;49.88;97155.94;4200744;28;5889;-67
2023/09/27 12:54:47;;;;;;;;;;;;;;;21.27;49.83;97156.50;4200754;28;6300;-66
2023/09/27 12:56:50;;;;;;;;;;;;;;;21.27;49.66;97153.00;4200716;28;5619;-67
2023/09/27 12:58:53;;;;;;;;;;;;;;;21.26;49.70;97149.50;4200744;28;5717;-67
2023/09/27 13:00:56;;;;;;;;;;;;;;;21.27;49.74;97153.81;4200396;28;5920;-65
2023/09/27 13:02:59;;;;;;;;;;;;;;;21.26;50.14;97146.81;4200456;28;5623;-66
2023/09/27 13:05:04;;;;;;;;;;;;;;;21.26;50.06;97148.69;4200431;28;5623;-65
2023/09/27 13:07:07;;;;;;;;;;;;;;;21.25;50.07;97142.47;4200280;28;5655;-66
2023/09/27 13:09:10;;;;;;;;;;;;;;;21.28;50.22;97146.56;4200569;28;6321;-65
2023/09/27 13:11:13;;;;;;;;;;;;;;;21.27;50.03;97143.06;4200283;28;5801;-66
2023/09/27 13:13:16;;;;;;;;;;;;;;;21.27;50.11;97139.56;4200315;28;5755;-65
2023/09/27 13:15:18;;;;;;;;;;;;;;;21.27;49.99;97134.19;4200266;28;5761;-65
2023/09/27 13:17:22;;;;;;;;;;;;;;;21.28;50.06;97142.00;4200115;28;5763;-66
2023/09/27 13:19:25;;;;;;;;;;;;;;;21.29;50.03;97140.94;4200167;28;5717;-65
2023/09/27 13:21:29;;;;;;;;;;;;;;;21.30;50.43;97131.81;4200200;28;7834;-65
2023/09/27 13:23:32;;;;;;;;;;;;;;;21.31;50.37;97132.63;4200301;28;5952;-65
2023/09/27 13:25:35;;;;;;;;;;;;;;;21.29;50.68;97135.56;4200394;28;5615;-66
2023/09/27 13:27:40;;;;;;;;;;;;;;;21.31;50.65;97132.63;4199886;28;5769;-66
2023/09/27 13:29:43;;;;;;;;;;;;;;;21.32;50.49;97135.06;4200048;28;5742;-65
2023/09/27 13:31:47;;;;;;;;;;;;;;;21.33;50.65;97136.69;4200426;28;5859;-65
2023/09/27 13:33:50;;;;;;;;;;;;;;;21.33;50.96;97125.13;4200031;28;5735;-65
2023/09/27 13:36:11;;;;;;;;;;;;;;;21.35;50.82;97123.00;4200398;28;5850;-65
2023/09/27 13:38:16;;;;;;;;;;;;;;;21.36;50.89;97121.91;4192601;28;5759;-65
2023/09/27 13:40:19;;;;;;;;;;;;;;;21.38;50.94;97120.59;4203519;28;5759;-65
2023/09/27 13:42:22;;;;;;;;;;;;;;;21.39;51.09;97116.03;4203594;28;5726;-66
2023/09/27 13:44:26;;;;;;;;;;;;;;;21.39;51.17;97114.16;4203566;28;5742;-66
2023/09/27 13:46:29;;;;;;;;;;;;;;;21.40;51.48;97114.97;4185389;28;6008;-66
2023/09/27 13:48:34;;;;;;;;;;;;;;;21.41;51.38;97120.09;4203286;28;8372;-66
2023/09/27 13:50:37;;;;;;;;;;;;;;;21.42;51.27;97113.66;4203467;28;5860;-66
2023/09/27 13:52:40;;;;;;;;;;;;;;;21.45;51.35;97113.16;4203430;28;5729;-67
2023/09/27 13:54:44;;;;;;;;;;;;;;;21.44;51.84;97108.03;4203455;28;5729;-66
2023/09/27 13:56:47;;;;;;;;;;;;;;;21.44;51.63;97111.53;4185396;28;6471;-66
2023/09/27 13:58:50;;;;;;;;;;;;;;;21.44;51.42;97108.84;4203490;28;5749;-66
2023/09/27 14:00:54;;;;;;;;;;;;;;;21.46;51.95;97108.56;4203009;28;5805;-66
2023/09/27 14:02:57;;;;;;;;;;;;;;;21.47;51.87;97104.81;4203131;28;5738;-66
2023/09/27 14:05:00;;;;;;;;;;;;;;;21.50;51.88;97097.03;4202657;28;5726;-66
2023/09/27 14:07:03;;;;;;;;;;;;;;;21.53;51.93;97098.44;4203076;28;5734;-66
2023/09/27 14:09:06;;;;;;;;;;;;;;;21.54;52.20;97093.88;4203370;28;5734;-67
2023/09/27 14:11:14;;;;;;;;;;;;;;;21.54;51.97;97093.88;4185091;28;5752;-66
2023/09/27 14:13:17;;;;;;;;;;;;;;;21.55;52.10;97093.59;4203255;28;5743;-66
2023/09/27 14:15:20;;;;;;;;;;;;;;;21.56;52.28;97094.41;4203063;28;5845;-66
2023/09/27 14:17:23;;;;;;;;;;;;;;;21.57;52.17;97098.72;4202649;28;5890;-66
2023/09/27 14:19:26;;;;;;;;;;;;;;;21.57;52.11;97090.66;4202917;28;5735;-66
2023/09/27 14:21:29;;;;;;;;;;;;;;;21.59;52.66;97094.69;4202958;28;5870;-66
2023/09/27 14:23:32;;;;;;;;;;;;;;;21.59;52.48;97088.50;4203031;28;5820;-66
2023/09/27 14:25:35;;;;;;;;;;;;;;;21.60;52.40;97088.25;4202851;28;5754;-66
2023/09/27 14:27:40;;;;;;;;;;;;;;;21.61;52.70;97083.69;4197485;28;6013;-66
2023/09/27 14:29:43;;;;;;;;;;;;;;;21.63;52.37;97074.31;4197242;28;5726;-66
2023/09/27 14:31:46;;;;;;;;;;;;;;;21.64;52.70;97072.44;4195441;28;5752;-66
2023/09/27 14:33:49;;;;;;;;;;;;;;;21.64;52.30;97073.25;4199919;28;5854;-67
2023/09/27 14:35:53;;;;;;;;;;;;;;;21.63;52.31;97073.47;4201406;28;6404;-67
2023/09/27 14:37:56;;;;;;;;;;;;;;;21.62;52.62;97078.03;4202106;28;6059;-66
2023/09/27 14:39:59;;;;;;;;;;;;;;;21.62;52.74;97072.66;4201530;28;5738;-66
2023/09/27 14:42:02;;;;;;;;;;;;;;;21.65;52.79;97084.81;4200173;28;5869;-68
2023/09/27 14:44:06;;;;;;;;;;;;;;;21.64;52.58;97073.25;4200450;28;5746;-65
2023/09/27 14:46:10;;;;;;;;;;;;;;;21.65;52.64;97079.44;4200149;28;5841;-66
2023/09/27 14:48:14;;;;;;;;;;;;;;;21.65;52.47;97077.56;4192576;28;5913;-64
2023/09/27 14:50:17;;;;;;;;;;;;;;;21.64;53.00;97080.50;4196519;28;5876;-65
2023/09/27 14:52:20;;;;;;;;;;;;;;;21.64;53.00;97080.50;4199632;28;6051;-66
2023/09/27 14:54:23;;;;;;;;;;;;;;;21.65;52.73;97088.31;4197299;28;6524;-65
2023/09/27 14:56:25;;;;;;;;;;;;;;;21.65;53.20;97090.19;4186303;28;5831;-65
2023/09/27 14:58:28;;;;;;;;;;;;;;;21.65;52.92;97087.50;4176593;28;5779;-66
2023/09/27 15:00:32;;;;;;;;;;;;;;;21.63;52.97;97082.38;4200674;28;5714;-65
2023/09/27 15:02:35;;;;;;;;;;;;;;;21.64;53.32;97088.56;4193629;28;5917;-66
2023/09/27 15:04:38;;;;;;;;;;;;;;;21.65;53.32;97091.00;4192339;28;5734;-65
2023/09/27 15:06:41;;;;;;;;;;;;;;;21.66;53.33;97086.44;4198681;28;5838;-65
2023/09/27 15:08:47;;;;;;;;;;;;;;;21.65;52.96;97093.69;4201423;28;5722;-66
2023/09/27 15:10:53;;;;;;;;;;;;;;;21.67;53.29;97098.81;4212841;28;5871;-65
2023/09/27 15:12:56;;;;;;;;;;;;;;;21.65;53.54;97096.38;4201686;28;5793;-66
2023/09/27 15:14:59;;;;;;;;;;;;;;;21.66;53.12;97098.00;4201282;28;5749;-65
2023/09/27 15:17:04;;;;;;;;;;;;;;;21.68;53.21;97092.38;4200241;28;5735;-65
2023/09/27 15:19:08;;;;;;;;;;;;;;;21.68;53.52;97092.38;4200268;28;5738;-66
2023/09/27 15:21:10;;;;;;;;;;;;;;;21.68;53.44;97092.38;4199168;28;5780;-66
2023/09/27 15:23:13;;;;;;;;;;;;;;;21.69;53.51;97088.59;4200558;28;6546;-65
2023/09/27 15:25:16;;;;;;;;;;;;;;;21.70;53.65;97098.28;4201179;28;5801;-65
2023/09/27 15:27:19;;;;;;;;;;;;;;;21.71;53.29;97098.03;4192560;28;5828;-65
2023/09/27 15:29:22;;;;;;;;;;;;;;;21.71;53.46;97100.72;4196895;28;5734;-65
2023/09/27 15:31:25;;;;;;;;;;;;;;;21.73;53.63;97097.78;4190821;28;5912;-65
2023/09/27 15:33:29;;;;;;;;;;;;;;;21.72;53.54;97096.97;4201725;28;5901;-65
2023/09/27 15:35:31;;;;;;;;;;;;;;;21.72;53.17;97096.97;4193860;28;6732;-66
2023/09/27 15:37:34;;;;;;;;;;;;;;;21.72;53.14;97096.97;4199341;28;5842;-67
2023/09/27 15:39:37;;;;;;;;;;;;;;;21.73;53.18;97108.53;4178018;28;5641;-65
2023/09/27 15:41:40;;;;;;;;;;;;;;;21.74;52.71;97104.78;4194977;28;5900;-65
2023/09/27 15:43:44;;;;;;;;;;;;;;;21.75;52.64;97112.63;4194409;28;5813;-66
2023/09/27 15:45:59;;;;;;;;;;;;;;;21.75;52.81;97109.13;4177674;28;5850;-66
2023/09/27 15:48:02;;;;;;;;;;;;;;;21.74;52.33;97112.84;4199354;28;5832;-66
2023/09/27 15:50:09;;;;;;;;;;;;;;;21.74;52.82;97110.16;4195339;28;5844;-66
2023/09/27 15:52:13;;;;;;;;;;;;;;;21.75;52.75;97114.50;4197678;28;5840;-67
2023/09/27 15:54:17;;;;;;;;;;;;;;;21.75;52.77;97107.22;4199741;28;5731;-66
2023/09/27 15:56:21;;;;;;;;;;;;;;;21.77;52.65;97115.03;4199740;28;5809;-66
2023/09/27 15:58:25;;;;;;;;;;;;;;;21.78;52.41;97111.28;4197689;28;5730;-66
2023/09/27 16:00:29;;;;;;;;;;;;;;;21.79;52.34;97112.91;4198913;28;5729;-66
2023/09/27 16:02:31;;;;;;;;;;;;;;;21.79;52.49;97110.22;4197916;28;5920;-67
2023/09/27 16:04:35;;;;;;;;;;;;;;;21.78;52.51;97103.22;4199537;28;5743;-66
2023/09/27 16:06:54;;;;;;;;;;;;;;;21.78;52.77;97103.22;4200210;28;5762;-65
2023/09/27 16:08:57;;;;;;;;;;;;;;;21.79;52.78;97112.91;4199885;28;5920;-66
2023/09/27 16:11:00;;;;;;;;;;;;;;;21.78;52.64;97111.28;4199655;28;5901;-66
2023/09/27 16:13:03;;;;;;;;;;;;;;;21.78;52.41;97113.97;4197407;28;5850;-67
2023/09/27 16:15:07;;;;;;;;;;;;;;;21.77;53.07;97115.03;4199428;28;5741;-66
2023/09/27 16:17:10;;;;;;;;;;;;;;;21.79;52.69;97107.53;4195825;28;5881;-67
2023/09/27 16:19:13;;;;;;;;;;;;;;;21.80;53.07;97111.84;4195557;28;5774;-67
2023/09/27 16:21:18;;;;;;;;;;;;;;;21.80;53.02;97109.16;4199848;28;5764;-67
2023/09/27 16:23:22;;;;;;;;;;;;;;;21.80;52.83;97106.44;4199573;28;5846;-67
2023/09/27 16:25:25;;;;;;;;;;;;;;;21.78;53.16;97100.53;4199469;28;7822;-68
2023/09/27 16:27:28;;;;;;;;;;;;;;;21.78;53.11;97097.81;4193426;28;5771;-66